Time;durP1;ratioP1;P1;durP2;ratioP2;P2;SDS_P1;SDS_P2;PMS_P1;PMS_P2;Temp;Humidity;BMP_temperature;BMP_pressure;BME280_temperature;BME280_humidity;BME280_pressure;Samples;Min_cycle;Max_cycle;Signal;HPM_P1;HPM_P2
2021/12/11 00:01:44;;;;;;;16.80;9.60;;;;;;;;;;5002495;28;20212;-60
2021/12/11 00:04:13;;;;;;;15.40;9.20;;;;;;;;;;4994355;28;20220;-60
2021/12/11 00:06:39;;;;;;;16.60;9.90;;;;;;;;;;4977983;28;20212;-59
2021/12/11 00:09:13;;;;;;;15.67;9.40;;;;;;;;;;4997241;28;20240;-60
2021/12/11 00:11:39;;;;;;;13.80;8.47;;;;;;;;;;5004387;28;20208;-60
2021/12/11 00:14:05;;;;;;;16.30;9.40;;;;;;;;;;5003712;28;20228;-60
2021/12/11 00:16:31;;;;;;;17.40;10.03;;;;;;;;;;5003850;28;20217;-60
2021/12/11 00:19:00;;;;;;;15.03;9.57;;;;;;;;;;5004288;28;20220;-60
2021/12/11 00:21:25;;;;;;;15.97;9.07;;;;;;;;;;5003952;28;20223;-60
2021/12/11 00:23:55;;;;;;;16.40;9.70;;;;;;;;;;5002176;28;20217;-60
2021/12/11 00:26:22;;;;;;;17.27;9.83;;;;;;;;;;4995955;28;20232;-60
2021/12/11 00:28:48;;;;;;;16.50;9.73;;;;;;;;;;4996068;28;20216;-60
2021/12/11 00:31:14;;;;;;;17.60;9.17;;;;;;;;;;4997355;28;20212;-60
2021/12/11 00:33:39;;;;;;;16.67;10.03;;;;;;;;;;5004406;28;20213;-60
2021/12/11 00:36:08;;;;;;;15.67;9.20;;;;;;;;;;5004044;28;20208;-60
2021/12/11 00:38:34;;;;;;;16.30;10.53;;;;;;;;;;5002053;28;20213;-59
2021/12/11 00:41:00;;;;;;;15.03;9.87;;;;;;;;;;5004368;28;20208;-60
2021/12/11 00:43:28;;;;;;;18.93;10.97;;;;;;;;;;5002191;28;20232;-60
2021/12/11 00:45:54;;;;;;;18.53;9.93;;;;;;;;;;5002727;28;20212;-60
2021/12/11 00:48:20;;;;;;;15.97;9.60;;;;;;;;;;4995867;28;20220;-60
2021/12/11 00:50:50;;;;;;;17.93;10.30;;;;;;;;;;4996020;28;20208;-60
2021/12/11 00:53:26;;;;;;;18.20;10.03;;;;;;;;;;4994502;28;20231;-60
2021/12/11 00:55:53;;;;;;;14.47;9.30;;;;;;;;;;5004375;28;20212;-60
2021/12/11 00:58:19;;;;;;;14.73;9.33;;;;;;;;;;5002816;28;20576;-60
2021/12/11 01:00:48;;;;;;;15.17;9.53;;;;;;;;;;5001944;28;20209;-60
2021/12/11 01:03:14;;;;;;;13.37;9.33;;;;;;;;;;5003469;28;20346;-60
2021/12/11 01:05:41;;;;;;;13.70;8.80;;;;;;;;;;5003354;28;20267;-60
2021/12/11 01:08:14;;;;;;;12.57;8.33;;;;;;;;;;5006512;28;20212;-60
2021/12/11 01:10:39;;;;;;;15.60;8.67;;;;;;;;;;4999415;28;20208;-60
2021/12/11 01:13:05;;;;;;;14.30;9.10;;;;;;;;;;4997744;28;20213;-60
2021/12/11 01:15:32;;;;;;;12.63;8.40;;;;;;;;;;4999642;28;20868;-60
2021/12/11 01:18:21;;;;;;;12.97;8.47;;;;;;;;;;5006962;28;20205;-60
2021/12/11 01:20:55;;;;;;;14.03;9.37;;;;;;;;;;5005933;28;20197;-59
2021/12/11 01:25:58;;;;;;;17.37;9.27;;;;;;;;;;5007443;28;20204;-60
2021/12/11 01:28:23;;;;;;;14.87;9.83;;;;;;;;;;5005849;28;20216;-60
2021/12/11 01:30:48;;;;;;;15.37;9.93;;;;;;;;;;5006360;28;20211;-60
2021/12/11 01:33:13;;;;;;;14.70;9.13;;;;;;;;;;4998737;28;20216;-60
2021/12/11 01:35:40;;;;;;;15.87;9.80;;;;;;;;;;4998651;28;20196;-60
2021/12/11 01:38:06;;;;;;;16.47;10.47;;;;;;;;;;4999072;28;20208;-60
2021/12/11 01:40:32;;;;;;;15.70;10.20;;;;;;;;;;5006260;28;20431;-60
2021/12/11 01:42:58;;;;;;;18.63;10.40;;;;;;;;;;5005602;28;20258;-60
2021/12/11 01:45:24;;;;;;;14.40;9.80;;;;;;;;;;5004931;28;20282;-60
2021/12/11 01:47:49;;;;;;;16.87;9.73;;;;;;;;;;5004898;28;21157;-60
2021/12/11 01:50:17;;;;;;;15.23;9.10;;;;;;;;;;5006076;28;20209;-60
2021/12/11 01:52:44;;;;;;;13.07;9.00;;;;;;;;;;5006842;28;20215;-60
2021/12/11 01:55:18;;;;;;;15.50;8.60;;;;;;;;;;4996756;28;20220;-60
2021/12/11 01:57:46;;;;;;;16.33;9.10;;;;;;;;;;4996768;28;20218;-60
2021/12/11 02:00:14;;;;;;;16.67;9.47;;;;;;;;;;4997957;28;20212;-60
2021/12/11 02:02:42;;;;;;;14.10;8.53;;;;;;;;;;5005121;28;20212;-60
2021/12/11 02:05:07;;;;;;;16.97;10.60;;;;;;;;;;5005904;28;20344;-60
2021/12/11 02:07:38;;;;;;;15.40;9.10;;;;;;;;;;5005080;28;20292;-60
2021/12/11 02:10:09;;;;;;;17.20;9.77;;;;;;;;;;5004566;28;20321;-60
2021/12/11 02:12:39;;;;;;;15.67;9.87;;;;;;;;;;5006245;28;20276;-60
2021/12/11 02:15:05;;;;;;;14.83;9.60;;;;;;;;;;5005810;28;20216;-60
2021/12/11 02:17:33;;;;;;;14.43;9.27;;;;;;;;;;4999198;28;20621;-60
2021/12/11 02:19:58;;;;;;;15.03;9.33;;;;;;;;;;4996511;28;20220;-60
2021/12/11 02:22:24;;;;;;;14.13;8.80;;;;;;;;;;4995890;28;20214;-60
2021/12/11 02:24:57;;;;;;;15.83;8.70;;;;;;;;;;5004491;28;20224;-60
2021/12/11 02:27:24;;;;;;;15.53;8.73;;;;;;;;;;5004125;28;20208;-60
2021/12/11 02:29:53;;;;;;;14.50;8.67;;;;;;;;;;5004146;28;20616;-60
2021/12/11 02:32:27;;;;;;;15.87;10.00;;;;;;;;;;5005457;28;20573;-60
2021/12/11 02:34:55;;;;;;;15.13;9.33;;;;;;;;;;5005748;28;20570;-59
2021/12/11 02:37:22;;;;;;;14.80;10.03;;;;;;;;;;5004748;28;20545;-60
2021/12/11 02:39:49;;;;;;;16.47;9.00;;;;;;;;;;5000194;28;20208;-60
2021/12/11 02:42:17;;;;;;;17.20;9.50;;;;;;;;;;4996892;28;20282;-60
2021/12/11 02:44:44;;;;;;;14.73;9.27;;;;;;;;;;4996915;28;20220;-60
2021/12/11 02:47:17;;;;;;;18.17;9.10;;;;;;;;;;5002213;28;20236;-60
2021/12/11 02:49:43;;;;;;;17.53;8.90;;;;;;;;;;5005554;28;20200;-60
2021/12/11 02:52:12;;;;;;;16.57;9.60;;;;;;;;;;5004584;28;20247;-60
2021/12/11 02:54:48;;;;;;;17.13;9.50;;;;;;;;;;5005862;28;20683;-60
2021/12/11 02:57:17;;;;;;;15.67;9.63;;;;;;;;;;5004774;28;20912;-60
2021/12/11 02:59:44;;;;;;;15.63;10.13;;;;;;;;;;5004717;28;20733;-60
2021/12/11 03:02:13;;;;;;;17.80;8.93;;;;;;;;;;4999446;28;20212;-60
2021/12/11 03:04:45;;;;;;;18.57;9.30;;;;;;;;;;4995836;28;20228;-59
2021/12/11 03:07:12;;;;;;;16.67;8.23;;;;;;;;;;4994441;28;20220;-60
2021/12/11 03:09:39;;;;;;;13.53;8.37;;;;;;;;;;5002512;28;20208;-60
2021/12/11 03:12:06;;;;;;;14.63;9.10;;;;;;;;;;5003975;28;20236;-60
2021/12/11 03:14:31;;;;;;;10.63;8.20;;;;;;;;;;5005252;28;20212;-59
2021/12/11 03:16:57;;;;;;;14.50;8.70;;;;;;;;;;5003738;28;20211;-60
2021/12/11 03:19:23;;;;;;;15.83;9.33;;;;;;;;;;5003808;28;20216;-60
2021/12/11 03:21:48;;;;;;;18.73;9.10;;;;;;;;;;5005084;28;20737;-60
2021/12/11 03:24:14;;;;;;;15.37;9.50;;;;;;;;;;5000403;28;20748;-60
2021/12/11 03:26:39;;;;;;;15.40;9.20;;;;;;;;;;4994861;28;20208;-60
2021/12/11 03:29:05;;;;;;;14.63;8.87;;;;;;;;;;4995945;28;20747;-60
2021/12/11 03:31:31;;;;;;;13.03;8.80;;;;;;;;;;5001514;28;20234;-60
2021/12/11 03:33:57;;;;;;;13.87;9.47;;;;;;;;;;5003967;28;20512;-60
2021/12/11 03:36:22;;;;;;;15.50;9.93;;;;;;;;;;5004028;28;20216;-60
2021/12/11 03:38:51;;;;;;;16.90;9.10;;;;;;;;;;5005140;28;20220;-60
2021/12/11 03:41:16;;;;;;;14.13;9.73;;;;;;;;;;5003589;28;20208;-60
2021/12/11 03:43:42;;;;;;;16.40;9.70;;;;;;;;;;5004668;28;20220;-60
2021/12/11 03:46:08;;;;;;;17.27;10.23;;;;;;;;;;5002456;28;20208;-59
2021/12/11 03:48:34;;;;;;;16.43;9.53;;;;;;;;;;4994577;28;20313;-60
2021/12/11 03:51:00;;;;;;;16.50;10.10;;;;;;;;;;4996544;28;20215;-60
2021/12/11 03:53:25;;;;;;;15.60;9.70;;;;;;;;;;4998370;28;20208;-60
2021/12/11 03:55:52;;;;;;;15.53;8.97;;;;;;;;;;5004326;28;20573;-59
2021/12/11 03:58:18;;;;;;;16.27;9.93;;;;;;;;;;5004219;28;20250;-60
2021/12/11 04:00:45;;;;;;;20.17;10.33;;;;;;;;;;5003376;28;20205;-60
2021/12/11 04:03:11;;;;;;;15.17;9.80;;;;;;;;;;5001935;28;20213;-60
2021/12/11 04:05:38;;;;;;;16.33;9.57;;;;;;;;;;4986536;28;20243;-60
2021/12/11 04:08:03;;;;;;;16.10;9.43;;;;;;;;;;5003569;28;20696;-60
2021/12/11 04:10:29;;;;;;;16.13;9.67;;;;;;;;;;4994734;28;20212;-60
2021/12/11 04:12:56;;;;;;;14.63;9.60;;;;;;;;;;4994706;28;20236;-59
2021/12/11 04:15:21;;;;;;;14.63;9.10;;;;;;;;;;4995761;28;20208;-60
2021/12/11 04:17:47;;;;;;;15.23;9.67;;;;;;;;;;5004340;28;20219;-60
2021/12/11 04:20:14;;;;;;;16.80;9.57;;;;;;;;;;5003990;28;20216;-60
2021/12/11 04:22:39;;;;;;;15.90;9.73;;;;;;;;;;5002294;28;20236;-59
2021/12/11 04:25:05;;;;;;;19.00;9.30;;;;;;;;;;5004044;28;20247;-59
2021/12/11 04:27:30;;;;;;;15.83;9.87;;;;;;;;;;5010097;28;20315;-60
2021/12/11 04:29:56;;;;;;;14.40;9.47;;;;;;;;;;5002242;28;20300;-60
2021/12/11 04:32:21;;;;;;;15.27;9.47;;;;;;;;;;4997765;28;20221;-59
2021/12/11 04:34:47;;;;;;;15.43;9.33;;;;;;;;;;4996186;28;20558;-59
2021/12/11 04:37:16;;;;;;;14.90;9.33;;;;;;;;;;4994810;28;20200;-60
2021/12/11 04:39:42;;;;;;;17.67;10.37;;;;;;;;;;5003244;28;20292;-60
2021/12/11 04:42:19;;;;;;;16.50;10.17;;;;;;;;;;5005825;28;20236;-60
2021/12/11 04:44:46;;;;;;;18.27;9.90;;;;;;;;;;5005155;28;20223;-60
2021/12/11 04:47:20;;;;;;;16.47;9.87;;;;;;;;;;5007662;28;20267;-60
2021/12/11 04:49:53;;;;;;;14.47;9.30;;;;;;;;;;5007614;28;20243;-60
2021/12/11 04:52:18;;;;;;;15.37;9.53;;;;;;;;;;5007046;28;20224;-60
2021/12/11 04:54:59;;;;;;;15.10;9.60;;;;;;;;;;5001424;28;20212;-60
2021/12/11 05:00:14;;;;;;;18.03;9.93;;;;;;;;;;4998468;28;20243;-60
2021/12/11 05:03:08;;;;;;;16.83;9.80;;;;;;;;;;5006700;28;20212;-59
2021/12/11 05:10:56;;;;;;;15.50;9.80;;;;;;;;;;5006975;28;20262;-60
2021/12/11 05:13:22;;;;;;;19.07;10.50;;;;;;;;;;5006152;28;20219;-60
2021/12/11 05:15:48;;;;;;;15.97;9.43;;;;;;;;;;5004905;28;20772;-60
2021/12/11 05:18:14;;;;;;;16.53;10.43;;;;;;;;;;4998943;28;20208;-60
2021/12/11 05:20:39;;;;;;;14.90;10.17;;;;;;;;;;4998291;28;20266;-60
2021/12/11 05:23:05;;;;;;;18.53;10.40;;;;;;;;;;4997183;28;20588;-60
2021/12/11 05:25:30;;;;;;;19.53;10.53;;;;;;;;;;5007466;28;20676;-60
2021/12/11 05:27:55;;;;;;;16.27;10.53;;;;;;;;;;5006560;28;20560;-59
2021/12/11 05:30:23;;;;;;;17.27;10.40;;;;;;;;;;5006693;28;20236;-60
2021/12/11 05:32:48;;;;;;;19.23;10.30;;;;;;;;;;5006665;28;20236;-60
2021/12/11 05:35:13;;;;;;;17.97;10.87;;;;;;;;;;5006382;28;20242;-60
2021/12/11 05:37:39;;;;;;;15.93;10.33;;;;;;;;;;5007311;28;20569;-59
2021/12/11 05:40:05;;;;;;;16.93;10.47;;;;;;;;;;4998755;28;20606;-60
2021/12/11 05:42:30;;;;;;;19.23;11.20;;;;;;;;;;4998963;28;20244;-60
2021/12/11 05:44:55;;;;;;;15.60;10.50;;;;;;;;;;4997260;28;20228;-60
2021/12/11 05:47:21;;;;;;;15.97;10.77;;;;;;;;;;5004682;28;20621;-60
2021/12/11 05:49:47;;;;;;;21.63;12.47;;;;;;;;;;5005392;28;20294;-60
2021/12/11 05:52:12;;;;;;;20.13;11.93;;;;;;;;;;5003660;28;20213;-60
2021/12/11 05:54:38;;;;;;;18.40;11.60;;;;;;;;;;5004590;28;20219;-60
2021/12/11 05:57:05;;;;;;;18.00;11.73;;;;;;;;;;5006261;28;20623;-60
2021/12/11 05:59:31;;;;;;;20.33;12.13;;;;;;;;;;5006801;28;20216;-60
2021/12/11 06:01:58;;;;;;;20.00;11.80;;;;;;;;;;5000862;28;20691;-60
2021/12/11 06:04:25;;;;;;;20.80;12.10;;;;;;;;;;4997578;28;20813;-60
2021/12/11 06:06:50;;;;;;;20.43;12.93;;;;;;;;;;4996120;28;20204;-60
2021/12/11 06:09:17;;;;;;;18.40;11.50;;;;;;;;;;5002334;28;20216;-60
2021/12/11 06:11:43;;;;;;;18.20;11.60;;;;;;;;;;5005930;28;20223;-60
2021/12/11 06:14:08;;;;;;;19.07;12.10;;;;;;;;;;5005660;28;20217;-60
2021/12/11 06:16:34;;;;;;;20.70;11.70;;;;;;;;;;5005564;28;20212;-60
2021/12/11 06:19:03;;;;;;;21.10;12.07;;;;;;;;;;5006506;28;20212;-60
2021/12/11 06:21:29;;;;;;;20.67;12.27;;;;;;;;;;5006035;28;20757;-60
2021/12/11 06:23:54;;;;;;;17.83;11.47;;;;;;;;;;5001685;28;20244;-60
2021/12/11 06:26:19;;;;;;;18.17;11.17;;;;;;;;;;4997612;28;20272;-60
2021/12/11 06:28:44;;;;;;;24.37;12.07;;;;;;;;;;4997891;28;20204;-60
2021/12/11 06:31:17;;;;;;;21.43;11.40;;;;;;;;;;4999223;28;20776;-60
2021/12/11 06:33:43;;;;;;;21.70;11.63;;;;;;;;;;5005678;28;20220;-60
2021/12/11 06:36:10;;;;;;;24.37;12.33;;;;;;;;;;5001456;28;20209;-60
2021/12/11 06:38:35;;;;;;;23.03;12.57;;;;;;;;;;5005464;28;20224;-59
2021/12/11 06:41:01;;;;;;;27.47;13.80;;;;;;;;;;5005427;28;20212;-60
2021/12/11 06:43:26;;;;;;;24.07;13.93;;;;;;;;;;5004562;28;20592;-60
2021/12/11 06:45:52;;;;;;;29.73;15.53;;;;;;;;;;5010117;28;20668;-60
2021/12/11 06:48:17;;;;;;;30.77;16.47;;;;;;;;;;5004624;28;20213;-62
2021/12/11 06:50:43;;;;;;;33.03;16.80;;;;;;;;;;5007926;28;20545;-60
2021/12/11 06:53:10;;;;;;;34.53;16.93;;;;;;;;;;5006096;28;20204;-61
2021/12/11 06:55:36;;;;;;;29.33;15.53;;;;;;;;;;4993935;28;20209;-59
2021/12/11 06:58:01;;;;;;;31.50;16.00;;;;;;;;;;5004212;28;20574;-60
2021/12/11 07:00:28;;;;;;;29.83;19.83;;;;;;;;;;5003642;28;20415;-61
2021/12/11 07:02:53;;;;;;;33.73;17.57;;;;;;;;;;5012865;28;20278;-60
2021/12/11 07:05:18;;;;;;;31.83;16.60;;;;;;;;;;5008327;28;20680;-60
2021/12/11 07:07:44;;;;;;;26.03;15.63;;;;;;;;;;5012674;28;20634;-60
2021/12/11 07:10:10;;;;;;;28.53;16.50;;;;;;;;;;5012182;28;20239;-61
2021/12/11 07:12:36;;;;;;;28.87;16.87;;;;;;;;;;5011694;28;20271;-60
2021/12/11 07:15:01;;;;;;;24.63;15.50;;;;;;;;;;5011667;28;20216;-61
2021/12/11 07:17:27;;;;;;;30.60;16.73;;;;;;;;;;5013098;28;20221;-60
2021/12/11 07:19:53;;;;;;;24.97;15.53;;;;;;;;;;5011343;28;20212;-59
2021/12/11 07:22:18;;;;;;;30.90;16.40;;;;;;;;;;5012514;28;20222;-60
2021/12/11 07:24:47;;;;;;;27.30;15.40;;;;;;;;;;5013209;28;20456;-60
2021/12/11 07:27:12;;;;;;;26.00;15.50;;;;;;;;;;5011648;28;20695;-60
2021/12/11 07:29:38;;;;;;;27.80;15.73;;;;;;;;;;5004639;28;20212;-60
2021/12/11 07:32:04;;;;;;;27.23;15.27;;;;;;;;;;4992974;28;20209;-60
2021/12/11 07:34:29;;;;;;;27.53;15.63;;;;;;;;;;4992825;28;20300;-61
2021/12/11 07:36:55;;;;;;;29.43;15.93;;;;;;;;;;4993251;28;20680;-60
2021/12/11 07:39:21;;;;;;;30.23;18.67;;;;;;;;;;4991868;28;20217;-60
2021/12/11 07:41:46;;;;;;;26.70;15.87;;;;;;;;;;4991902;28;20216;-59
2021/12/11 07:44:12;;;;;;;26.63;15.33;;;;;;;;;;4992438;28;20225;-60
2021/12/11 07:46:37;;;;;;;24.97;15.00;;;;;;;;;;5002823;28;20216;-61
2021/12/11 07:49:03;;;;;;;26.20;15.13;;;;;;;;;;5012084;28;20224;-59
2021/12/11 07:51:29;;;;;;;24.63;15.10;;;;;;;;;;5012683;28;20339;-60
2021/12/11 07:53:54;;;;;;;27.87;17.07;;;;;;;;;;5011649;28;20231;-60
2021/12/11 07:56:20;;;;;;;31.57;17.33;;;;;;;;;;5012158;28;20274;-61
2021/12/11 07:58:46;;;;;;;29.40;18.10;;;;;;;;;;4994848;28;20589;-61
2021/12/11 08:01:11;;;;;;;27.83;16.37;;;;;;;;;;5011621;28;20680;-62
2021/12/11 08:03:37;;;;;;;27.63;18.73;;;;;;;;;;5010791;28;20435;-62
2021/12/11 08:06:02;;;;;;;25.17;15.80;;;;;;;;;;5012357;28;20671;-61
2021/12/11 08:08:27;;;;;;;29.13;18.97;;;;;;;;;;5011459;28;20220;-61
2021/12/11 08:10:54;;;;;;;26.63;15.80;;;;;;;;;;5012788;28;20212;-61
2021/12/11 08:13:20;;;;;;;27.03;15.70;;;;;;;;;;5010600;28;20267;-70
2021/12/11 08:15:45;;;;;;;22.83;14.83;;;;;;;;;;5011879;28;20668;-61
2021/12/11 08:18:11;;;;;;;26.20;16.10;;;;;;;;;;5015961;28;20303;-61
2021/12/11 08:20:37;;;;;;;25.70;15.80;;;;;;;;;;5016594;28;20592;-61
2021/12/11 08:23:02;;;;;;;26.73;15.73;;;;;;;;;;5013816;28;20224;-61
2021/12/11 08:25:28;;;;;;;26.30;16.00;;;;;;;;;;4995622;28;20227;-60
2021/12/11 08:27:54;;;;;;;26.83;16.53;;;;;;;;;;4996327;28;20267;-61
2021/12/11 08:30:19;;;;;;;27.97;17.60;;;;;;;;;;4995590;28;20220;-61
2021/12/11 08:32:44;;;;;;;29.57;17.00;;;;;;;;;;4996812;28;20217;-60
2021/12/11 08:35:10;;;;;;;28.30;17.90;;;;;;;;;;5003408;28;20240;-60
2021/12/11 08:37:36;;;;;;;31.87;19.10;;;;;;;;;;5002286;28;20206;-61
2021/12/11 08:40:02;;;;;;;30.60;20.03;;;;;;;;;;4995847;28;20283;-61
2021/12/11 08:42:28;;;;;;;34.03;21.57;;;;;;;;;;5006871;28;20303;-61
2021/12/11 08:44:59;;;;;;;32.13;20.27;;;;;;;;;;4994929;28;20300;-61
2021/12/11 08:47:24;;;;;;;32.10;19.67;;;;;;;;;;4995838;28;20213;-60
2021/12/11 08:49:50;;;;;;;30.90;18.93;;;;;;;;;;4994194;28;20637;-60
2021/12/11 08:52:17;;;;;;;32.13;18.23;;;;;;;;;;4996013;28;20700;-60
2021/12/11 08:54:43;;;;;;;34.67;19.63;;;;;;;;;;4996068;28;20337;-61
2021/12/11 08:57:09;;;;;;;32.50;19.00;;;;;;;;;;5000664;28;20231;-61
2021/12/11 08:59:35;;;;;;;31.77;19.27;;;;;;;;;;5014084;28;20212;-62
2021/12/11 09:02:02;;;;;;;32.20;18.97;;;;;;;;;;5015957;28;20622;-60
2021/12/11 09:04:35;;;;;;;31.80;19.80;;;;;;;;;;5005260;28;20229;-59
2021/12/11 09:07:03;;;;;;;31.07;18.73;;;;;;;;;;5015322;28;20702;-59
2021/12/11 09:09:30;;;;;;;31.43;19.47;;;;;;;;;;5015270;28;20251;-60
2021/12/11 09:11:58;;;;;;;28.93;18.63;;;;;;;;;;5014185;28;20209;-60
2021/12/11 09:14:29;;;;;;;34.27;19.73;;;;;;;;;;5013788;28;20216;-60
2021/12/11 09:16:56;;;;;;;32.87;18.97;;;;;;;;;;5013074;28;20208;-60
2021/12/11 09:19:24;;;;;;;34.60;19.93;;;;;;;;;;5012783;28;20643;-59
2021/12/11 09:21:55;;;;;;;33.07;20.00;;;;;;;;;;5015202;28;20270;-59
2021/12/11 09:24:23;;;;;;;34.90;19.57;;;;;;;;;;5014541;28;20684;-59
2021/12/11 09:26:50;;;;;;;35.77;21.53;;;;;;;;;;5012430;28;20558;-59
2021/12/11 09:29:23;;;;;;;39.43;21.97;;;;;;;;;;5014145;28;20239;-59
2021/12/11 09:31:52;;;;;;;78.37;38.33;;;;;;;;;;5013407;28;20239;-59
2021/12/11 09:34:19;;;;;;;146.07;68.40;;;;;;;;;;5014457;28;20251;-59
2021/12/11 09:36:47;;;;;;;92.80;50.63;;;;;;;;;;5013892;28;20678;-59
2021/12/11 09:39:19;;;;;;;43.37;26.60;;;;;;;;;;5012441;28;20219;-60
2021/12/11 09:41:45;;;;;;;39.20;23.13;;;;;;;;;;5015003;28;20294;-59
2021/12/11 09:44:15;;;;;;;33.33;20.47;;;;;;;;;;5014038;28;20263;-61
2021/12/11 09:46:41;;;;;;;30.33;18.63;;;;;;;;;;5013932;28;20266;-60
2021/12/11 09:49:07;;;;;;;33.03;18.97;;;;;;;;;;5011828;28;20709;-60
2021/12/11 09:51:34;;;;;;;41.30;21.93;;;;;;;;;;5009932;28;20208;-59
2021/12/11 09:54:01;;;;;;;40.23;21.87;;;;;;;;;;5007926;28;20216;-59
2021/12/11 09:56:29;;;;;;;34.60;20.30;;;;;;;;;;5000158;28;20219;-59
2021/12/11 09:58:55;;;;;;;35.80;20.17;;;;;;;;;;5003977;28;20262;-59
2021/12/11 10:01:21;;;;;;;33.97;20.63;;;;;;;;;;5011959;28;20216;-59
2021/12/11 10:03:50;;;;;;;32.47;20.37;;;;;;;;;;5014643;28;20696;-59
2021/12/11 10:06:37;;;;;;;37.43;21.80;;;;;;;;;;5013102;28;20215;-60
2021/12/11 10:09:17;;;;;;;40.23;21.90;;;;;;;;;;5013031;28;20703;-60
2021/12/11 10:11:42;;;;;;;39.50;22.90;;;;;;;;;;5014238;28;20560;-59
2021/12/11 10:14:09;;;;;;;42.87;23.83;;;;;;;;;;5013171;28;20231;-59
2021/12/11 10:16:35;;;;;;;46.47;25.80;;;;;;;;;;5013807;28;20216;-59
2021/12/11 10:19:01;;;;;;;49.23;27.03;;;;;;;;;;5011519;28;20208;-60
2021/12/11 10:21:27;;;;;;;51.37;27.40;;;;;;;;;;4997129;28;20216;-59
2021/12/11 10:23:54;;;;;;;57.27;27.77;;;;;;;;;;5003689;28;20592;-59
2021/12/11 10:26:19;;;;;;;55.33;29.70;;;;;;;;;;4993934;28;20213;-59
2021/12/11 10:28:46;;;;;;;59.07;28.40;;;;;;;;;;5005020;28;20205;-59
2021/12/11 10:31:14;;;;;;;61.87;29.90;;;;;;;;;;5006667;28;20666;-59
2021/12/11 10:33:39;;;;;;;64.83;30.23;;;;;;;;;;4994138;28;20209;-59
2021/12/11 10:36:06;;;;;;;59.77;29.57;;;;;;;;;;5002108;28;20270;-59
2021/12/11 10:38:32;;;;;;;58.90;29.93;;;;;;;;;;5010648;28;20415;-59
2021/12/11 10:40:57;;;;;;;57.27;28.93;;;;;;;;;;5013351;28;20208;-59
2021/12/11 10:43:24;;;;;;;52.50;28.03;;;;;;;;;;5012002;28;20228;-59
2021/12/11 10:45:49;;;;;;;54.40;27.23;;;;;;;;;;5012165;28;20219;-59
2021/12/11 10:48:15;;;;;;;45.23;24.23;;;;;;;;;;5013051;28;20204;-59
2021/12/11 10:50:42;;;;;;;46.43;24.90;;;;;;;;;;5010892;28;20219;-59
2021/12/11 10:53:08;;;;;;;45.87;25.20;;;;;;;;;;5025074;28;20205;-60
2021/12/11 10:55:33;;;;;;;38.30;22.57;;;;;;;;;;5011111;28;20215;-59
2021/12/11 10:58:00;;;;;;;46.47;23.80;;;;;;;;;;5003490;28;20213;-59
2021/12/11 11:00:28;;;;;;;39.30;23.13;;;;;;;;;;4991898;28;20292;-59
2021/12/11 11:02:53;;;;;;;50.00;25.07;;;;;;;;;;4993762;28;20571;-59
2021/12/11 11:05:19;;;;;;;46.97;24.27;;;;;;;;;;4991147;28;20209;-59
2021/12/11 11:07:44;;;;;;;44.67;25.13;;;;;;;;;;4993413;28;20213;-60
2021/12/11 11:10:12;;;;;;;41.27;22.90;;;;;;;;;;4991439;28;20209;-60
2021/12/11 11:12:37;;;;;;;43.83;23.47;;;;;;;;;;5003342;28;20224;-60
2021/12/11 11:15:03;;;;;;;43.40;22.53;;;;;;;;;;5012755;28;20596;-61
2021/12/11 11:17:29;;;;;;;41.30;22.57;;;;;;;;;;5010848;28;20216;-61
2021/12/11 11:19:54;;;;;;;47.70;24.00;;;;;;;;;;5011475;28;20204;-60
2021/12/11 11:22:21;;;;;;;47.70;25.10;;;;;;;;;;5012267;28;20214;-61
2021/12/11 11:24:48;;;;;;;55.67;25.60;;;;;;;;;;5012172;28;21059;-61
2021/12/11 11:27:14;;;;;;;47.67;24.97;;;;;;;;;;5011276;28;20549;-61
2021/12/11 11:29:41;;;;;;;54.17;26.73;;;;;;;;;;5012967;28;20299;-61
2021/12/11 11:32:08;;;;;;;49.57;25.03;;;;;;;;;;4994001;28;20201;-61
2021/12/11 11:34:39;;;;;;;53.07;24.70;;;;;;;;;;5011462;28;20634;-61
2021/12/11 11:37:05;;;;;;;50.00;25.40;;;;;;;;;;5010337;28;20205;-61
2021/12/11 11:39:30;;;;;;;50.07;24.83;;;;;;;;;;5011654;28;20212;-61
2021/12/11 11:41:57;;;;;;;59.23;26.37;;;;;;;;;;4995010;28;20548;-61
2021/12/11 11:44:24;;;;;;;49.97;25.63;;;;;;;;;;5012064;28;20293;-61
2021/12/11 11:46:51;;;;;;;56.13;26.40;;;;;;;;;;5011886;28;20291;-62
2021/12/11 11:49:16;;;;;;;54.23;26.47;;;;;;;;;;5012203;28;20215;-62
2021/12/11 11:51:43;;;;;;;58.13;27.03;;;;;;;;;;5011970;28;20209;-61
2021/12/11 11:54:09;;;;;;;67.87;29.00;;;;;;;;;;5011341;28;20216;-61
2021/12/11 11:56:37;;;;;;;51.03;26.93;;;;;;;;;;5012610;28;20234;-62
2021/12/11 11:59:03;;;;;;;49.87;23.67;;;;;;;;;;5011789;28;20220;-61
2021/12/11 12:01:31;;;;;;;54.17;25.30;;;;;;;;;;5011882;28;20681;-61
2021/12/11 12:03:56;;;;;;;53.87;25.80;;;;;;;;;;5011191;28;20695;-61
2021/12/11 12:06:25;;;;;;;55.10;26.30;;;;;;;;;;5011741;28;20216;-61
2021/12/11 12:08:51;;;;;;;57.60;26.30;;;;;;;;;;5012108;28;20231;-61
2021/12/11 12:11:17;;;;;;;50.23;24.90;;;;;;;;;;5012248;28;20212;-61
2021/12/11 12:13:42;;;;;;;46.53;24.03;;;;;;;;;;5010112;28;20231;-61
2021/12/11 12:16:08;;;;;;;53.03;25.50;;;;;;;;;;5012054;28;20207;-61
2021/12/11 12:18:34;;;;;;;52.93;25.77;;;;;;;;;;5010344;28;20212;-60
2021/12/11 12:21:00;;;;;;;57.57;26.73;;;;;;;;;;5009472;28;20216;-61
2021/12/11 12:23:31;;;;;;;56.33;28.07;;;;;;;;;;5003104;28;20219;-61
2021/12/11 12:25:56;;;;;;;56.37;25.50;;;;;;;;;;5030888;28;20219;-61
2021/12/11 12:28:21;;;;;;;48.27;26.27;;;;;;;;;;5030775;28;20208;-61
2021/12/11 12:30:47;;;;;;;54.40;26.23;;;;;;;;;;5031975;28;20233;-60
2021/12/11 12:33:12;;;;;;;52.30;25.80;;;;;;;;;;5025026;28;20220;-61
2021/12/11 12:35:37;;;;;;;47.73;23.93;;;;;;;;;;5031176;28;20216;-61
2021/12/11 12:38:03;;;;;;;43.90;23.80;;;;;;;;;;5031327;28;20216;-61
2021/12/11 12:40:31;;;;;;;42.07;24.10;;;;;;;;;;5030877;28;20291;-61
2021/12/11 12:43:05;;;;;;;37.67;21.87;;;;;;;;;;5026898;28;20247;-60
2021/12/11 12:45:32;;;;;;;36.07;21.30;;;;;;;;;;5008755;28;20215;-61
2021/12/11 12:47:59;;;;;;;36.07;19.93;;;;;;;;;;5011884;28;20216;-61
2021/12/11 12:50:28;;;;;;;31.93;19.33;;;;;;;;;;5011137;28;20209;-61
2021/12/11 12:52:53;;;;;;;30.83;18.10;;;;;;;;;;5011931;28;20213;-61
2021/12/11 12:55:25;;;;;;;43.63;28.40;;;;;;;;;;5011520;28;20212;-61
2021/12/11 12:57:51;;;;;;;29.00;19.07;;;;;;;;;;5011047;28;20619;-61
2021/12/11 13:00:18;;;;;;;31.90;19.20;;;;;;;;;;5011622;28;20676;-61
2021/12/11 13:02:43;;;;;;;33.60;19.03;;;;;;;;;;4998684;28;20217;-60
2021/12/11 13:05:11;;;;;;;33.45;18.60;;;;;;;;;;4999549;28;20302;-61
2021/12/11 13:07:37;;;;;;;33.60;18.37;;;;;;;;;;4997804;28;20200;-61
2021/12/11 13:10:03;;;;;;;27.10;16.87;;;;;;;;;;4999212;28;20619;-60
2021/12/11 13:12:31;;;;;;;28.60;17.30;;;;;;;;;;5007427;28;20224;-61
2021/12/11 13:14:58;;;;;;;23.00;14.70;;;;;;;;;;5008096;28;20222;-61
2021/12/11 13:17:25;;;;;;;27.90;16.27;;;;;;;;;;5006245;28;20282;-61
2021/12/11 13:19:52;;;;;;;27.10;15.87;;;;;;;;;;5005897;28;20251;-60
2021/12/11 13:22:19;;;;;;;22.77;14.60;;;;;;;;;;5006921;28;20266;-60
2021/12/11 13:24:49;;;;;;;25.73;15.53;;;;;;;;;;5006815;28;20226;-60
2021/12/11 13:27:15;;;;;;;26.30;15.60;;;;;;;;;;4995877;28;20220;-67
2021/12/11 13:29:41;;;;;;;24.87;16.40;;;;;;;;;;4997233;28;20219;-68
2021/12/11 13:32:14;;;;;;;29.87;18.53;;;;;;;;;;4998472;28;20212;-67
2021/12/11 13:34:39;;;;;;;27.03;16.87;;;;;;;;;;5005823;28;20212;-67
2021/12/11 13:37:06;;;;;;;23.67;15.53;;;;;;;;;;5005201;28;20228;-68
2021/12/11 13:39:31;;;;;;;23.40;15.37;;;;;;;;;;5002706;28;20710;-67
2021/12/11 13:42:00;;;;;;;28.27;17.43;;;;;;;;;;5007819;28;20217;-68
2021/12/11 13:44:26;;;;;;;26.13;16.20;;;;;;;;;;5006743;28;21091;-68
2021/12/11 13:46:51;;;;;;;26.53;17.20;;;;;;;;;;5004782;28;20580;-62
2021/12/11 13:49:16;;;;;;;25.23;15.67;;;;;;;;;;5000204;28;20726;-61
2021/12/11 13:51:43;;;;;;;24.23;15.87;;;;;;;;;;4998381;28;20328;-62
2021/12/11 13:54:08;;;;;;;26.80;15.63;;;;;;;;;;4996082;28;20221;-62
2021/12/11 13:56:36;;;;;;;25.10;15.57;;;;;;;;;;5005462;28;20220;-62
2021/12/11 13:59:01;;;;;;;25.20;15.83;;;;;;;;;;5005562;28;20225;-62
2021/12/11 14:01:28;;;;;;;33.27;20.07;;;;;;;;;;4989092;28;20216;-62
2021/12/11 14:03:54;;;;;;;36.63;20.83;;;;;;;;;;5006689;28;20221;-62
2021/12/11 14:06:21;;;;;;;34.33;21.13;;;;;;;;;;5005433;28;20751;-62
2021/12/11 14:08:47;;;;;;;38.77;23.40;;;;;;;;;;5005233;28;20220;-62
2021/12/11 14:11:13;;;;;;;52.00;31.53;;;;;;;;;;5000541;28;20379;-62
2021/12/11 14:13:38;;;;;;;35.63;21.40;;;;;;;;;;4997687;28;20668;-61
2021/12/11 14:16:04;;;;;;;45.53;26.70;;;;;;;;;;4997619;28;20215;-62
2021/12/11 14:18:30;;;;;;;32.53;18.90;;;;;;;;;;5000634;28;20244;-62
2021/12/11 14:20:55;;;;;;;29.70;18.70;;;;;;;;;;5005297;28;20224;-61
2021/12/11 14:23:23;;;;;;;29.67;17.60;;;;;;;;;;5004460;28;20228;-61
2021/12/11 14:25:49;;;;;;;27.90;17.77;;;;;;;;;;5005312;28;20236;-62
2021/12/11 14:28:15;;;;;;;27.27;17.07;;;;;;;;;;5005390;28;20259;-62
2021/12/11 14:30:41;;;;;;;30.27;17.47;;;;;;;;;;5004806;28;20217;-62